Time;durP1;ratioP1;P1;durP2;ratioP2;P2;SDS_P1;SDS_P2;PMS_P1;PMS_P2;Temp;Humidity;BMP_temperature;BMP_pressure;BME280_temperature;BME280_humidity;BME280_pressure;Samples;Min_cycle;Max_cycle;Signal;HPM_P1;HPM_P2
2021/12/19 00:00:14;;;;;;;39.87;28.37;;;14.40;99.90;;;15.18;52.67;103122.84;4917409;28;97270;-47
2021/12/19 00:10:40;;;;;;;44.87;29.60;;;14.40;99.90;;;15.13;53.08;103111.44;4932235;28;97175;-49
2021/12/19 00:13:07;;;;;;;16.63;12.90;;;14.40;99.90;;;15.08;53.20;103115.09;4920835;28;98304;-46
2021/12/19 00:15:32;;;;;;;43.40;30.00;;;14.30;99.90;;;15.11;53.05;103123.00;4912374;28;96860;-48
2021/12/19 00:17:58;;;;;;;37.17;27.17;;;14.30;99.90;;;15.10;53.05;103122.13;4931271;28;98758;-50
2021/12/19 00:20:24;;;;;;;47.63;30.40;;;14.40;99.90;;;15.02;52.10;103131.97;4935402;28;99523;-50
2021/12/19 00:22:50;;;;;;;41.43;26.53;;;14.30;99.90;;;15.02;53.47;103108.06;4908621;28;99279;-48
2021/12/19 00:25:16;;;;;;;33.53;23.00;;;14.20;99.90;;;15.06;53.10;103109.78;4915801;28;98401;-44
2021/12/19 00:27:42;;;;;;;37.83;25.60;;;14.30;99.90;;;15.06;53.26;103099.16;4913646;28;96907;-49
2021/12/19 00:30:08;;;;;;;42.50;29.43;;;14.30;99.90;;;15.05;53.37;103097.41;4916770;28;109877;-45
2021/12/19 00:32:34;;;;;;;30.83;21.17;;;14.30;99.90;;;15.06;53.12;103092.97;4920284;28;100367;-47
2021/12/19 00:35:00;;;;;;;40.63;27.57;;;14.30;99.90;;;15.08;52.87;103100.00;4934574;28;99610;-46
2021/12/19 00:37:26;;;;;;;38.90;27.13;;;14.40;99.90;;;15.04;52.44;103090.31;4934898;28;101176;-47
2021/12/19 00:39:51;;;;;;;38.10;26.03;;;14.30;99.90;;;15.08;53.18;103097.34;4915999;28;99214;-44
2021/12/19 00:42:34;;;;;;;37.37;25.43;;;14.40;99.90;;;15.05;51.83;103097.41;4916584;28;97277;-49
2021/12/19 00:45:16;;;;;;;36.10;23.70;;;14.40;99.90;;;15.00;52.97;103093.91;4907326;28;103552;-44
2021/12/19 00:47:43;;;;;;;36.17;25.33;;;14.20;99.90;;;14.98;53.02;103085.09;4912913;28;97789;-44
2021/12/19 00:50:11;;;;;;;35.03;23.83;;;14.20;99.90;;;14.99;53.38;103081.53;4918232;28;97295;-45
2021/12/19 00:52:36;;;;;;;34.53;24.23;;;14.30;99.90;;;15.02;53.30;103092.09;4931306;28;97739;-48
2021/12/19 00:55:03;;;;;;;33.13;23.53;;;14.40;99.90;;;15.04;53.19;103084.97;4915728;28;97862;-45
2021/12/19 00:57:29;;;;;;;26.57;19.40;;;14.40;99.90;;;15.05;53.29;103081.44;4932780;28;97555;-54
2021/12/19 00:59:55;;;;;;;27.17;20.20;;;14.40;99.90;;;15.06;52.70;103083.22;4913901;28;99813;-44
2021/12/19 01:02:21;;;;;;;33.53;22.27;;;14.40;99.90;;;14.99;52.54;103076.22;4925309;28;107920;-46
2021/12/19 01:04:47;;;;;;;32.70;22.20;;;14.30;99.90;;;14.98;52.78;103078.91;4912556;28;100023;-45
2021/12/19 01:07:13;;;;;;;31.43;22.00;;;14.20;99.90;;;14.96;53.33;103076.28;4933971;28;97707;-50
2021/12/19 01:09:39;;;;;;;31.87;23.30;;;14.20;99.90;;;14.87;53.13;103071.09;4930335;28;97273;-47
2021/12/19 01:12:09;;;;;;;31.07;21.23;;;14.10;99.90;;;14.90;53.67;103071.06;4908259;28;111490;-46
2021/12/19 01:14:37;;;;;;;32.60;22.20;;;14.20;99.90;;;14.90;53.02;103068.41;4913019;28;99584;-44
2021/12/19 01:17:05;;;;;;;31.37;22.57;;;14.20;99.90;;;14.85;52.97;103062.25;4912674;28;97422;-48
2021/12/19 01:19:31;;;;;;;31.17;21.07;;;14.20;99.90;;;14.73;52.96;103067.75;4908479;28;98318;-53
2021/12/19 01:21:57;;;;;;;31.90;21.60;;;14.00;99.90;;;14.64;53.97;103073.22;4912419;28;106436;-49
2021/12/19 01:24:23;;;;;;;30.70;21.13;;;13.80;99.90;;;14.64;53.91;103073.22;4932805;28;112961;-49
2021/12/19 01:26:49;;;;;;;29.20;20.30;;;13.90;99.90;;;14.67;54.04;103078.50;4909522;28;98957;-50
2021/12/19 01:29:15;;;;;;;31.80;21.50;;;13.90;99.90;;;14.56;54.01;103066.22;4932428;28;97349;-48
2021/12/19 01:31:41;;;;;;;25.57;19.53;;;13.80;99.90;;;14.65;53.94;103072.31;4910984;28;101787;-48
2021/12/19 01:34:12;;;;;;;29.80;20.63;;;14.00;99.90;;;14.59;53.28;103057.34;4933679;28;98395;-48
2021/12/19 01:36:43;;;;;;;27.20;20.37;;;14.00;99.90;;;14.62;53.85;103056.44;4928827;28;98591;-50
2021/12/19 01:39:11;;;;;;;30.27;20.53;;;14.10;99.90;;;14.55;53.89;103059.16;4913611;28;98099;-47
2021/12/19 01:41:51;;;;;;;28.73;20.17;;;14.00;99.90;;;14.42;53.97;103057.53;4910206;28;98674;-49
2021/12/19 01:44:17;;;;;;;27.17;19.13;;;13.80;99.90;;;14.45;54.62;103057.53;4950107;28;100427;-48
2021/12/19 01:46:46;;;;;;;27.37;19.57;;;13.90;99.90;;;14.41;54.58;103071.72;4927985;28;96951;-51
2021/12/19 01:49:13;;;;;;;27.07;19.63;;;13.80;99.90;;;14.40;54.76;103059.34;4935797;28;97617;-45
2021/12/19 01:51:39;;;;;;;28.83;19.77;;;13.70;99.90;;;14.29;53.88;103051.53;4934794;28;97637;-50
2021/12/19 01:54:06;;;;;;;27.10;18.70;;;13.60;99.90;;;14.33;54.66;103051.50;4936228;28;97339;-52
2021/12/19 01:56:32;;;;;;;24.23;17.13;;;13.60;99.90;;;14.35;55.04;103045.28;4936886;28;96954;-48
2021/12/19 01:58:59;;;;;;;25.93;19.20;;;13.60;99.90;;;14.38;54.67;103039.91;4932812;28;96898;-48
2021/12/19 02:01:25;;;;;;;26.17;18.73;;;13.70;99.90;;;14.34;54.92;103038.19;4934775;28;99838;-50
2021/12/19 02:03:51;;;;;;;24.50;19.00;;;13.70;99.90;;;14.21;53.11;103037.47;4930039;28;97696;-49
2021/12/19 02:06:17;;;;;;;26.87;18.23;;;13.60;99.90;;;14.14;54.49;103035.78;4934594;28;97176;-50
2021/12/19 02:08:44;;;;;;;24.43;18.00;;;13.50;99.90;;;14.16;54.85;103027.81;4936036;28;97062;-49
2021/12/19 02:11:10;;;;;;;24.27;17.90;;;13.40;99.90;;;14.23;54.69;103024.19;4931061;28;98959;-45
2021/12/19 02:13:38;;;;;;;23.10;17.73;;;13.60;99.90;;;14.10;54.54;103031.44;4952079;28;97334;-49
2021/12/19 02:16:04;;;;;;;21.70;16.97;;;13.40;99.90;;;14.10;55.39;103025.25;4937428;28;96941;-48
2021/12/19 02:18:30;;;;;;;20.93;16.10;;;13.40;99.90;;;14.13;55.33;103022.53;4926313;28;97335;-51
2021/12/19 02:20:58;;;;;;;24.03;17.23;;;13.40;99.90;;;14.09;54.70;103027.03;4937860;28;109318;-50
2021/12/19 02:23:28;;;;;;;22.97;16.20;;;13.40;99.90;;;13.84;55.29;103021.13;4941980;28;98331;-48
2021/12/19 02:25:56;;;;;;;22.37;16.60;;;13.20;99.90;;;13.79;55.73;103025.63;4944348;28;97460;-47
2021/12/19 02:28:22;;;;;;;24.40;14.77;;;13.10;99.90;;;13.70;55.28;103023.06;4948623;28;97691;-45
2021/12/19 02:30:49;;;;;;;20.27;14.77;;;13.10;99.90;;;13.54;55.14;103021.47;4932907;28;97799;-50
2021/12/19 02:33:20;;;;;;;20.70;15.80;;;13.00;99.90;;;13.54;56.27;103018.81;4935281;28;97488;-49
2021/12/19 02:35:56;;;;;;;21.50;15.50;;;12.90;99.90;;;13.61;56.65;103017.88;4933843;28;98523;-47
2021/12/19 02:49:33;;;;;;;17.80;14.03;;;13.10;99.90;;;13.57;55.92;103006.41;4948193;28;101269;-52
2021/12/19 02:52:00;;;;;;;19.07;14.33;;;13.10;99.90;;;13.60;56.78;103002.88;4941585;28;103656;-48
2021/12/19 02:54:28;;;;;;;20.40;15.63;;;13.10;99.90;;;13.63;56.69;102995.75;4934164;28;99489;-46
2021/12/19 02:56:55;;;;;;;17.03;13.40;;;13.10;99.90;;;13.69;55.07;102994.78;4953854;28;97285;-45
2021/12/19 02:59:21;;;;;;;19.57;14.47;;;13.20;99.90;;;13.62;55.83;102998.41;4935416;28;98007;-51
2021/12/19 03:01:47;;;;;;;19.37;14.87;;;13.00;99.90;;;13.68;56.49;102993.03;4935345;28;100457;-48
2021/12/19 03:04:14;;;;;;;21.63;15.23;;;13.10;99.90;;;13.76;56.14;102990.31;4939822;28;97134;-46
2021/12/19 03:06:48;;;;;;;16.90;14.20;;;13.20;99.90;;;13.61;55.66;102992.25;4946750;28;98712;-48
2021/12/19 03:09:27;;;;;;;17.20;13.07;;;13.10;99.90;;;13.64;55.76;102996.63;4925112;28;97755;-51
2021/12/19 03:12:07;;;;;;;20.97;14.27;;;13.10;99.90;;;13.74;56.24;102987.63;4930454;28;97267;-47
2021/12/19 03:20:03;;;;;;;17.43;13.30;;;13.30;99.90;;;13.94;55.44;102990.94;4959982;28;96942;-47
2021/12/19 03:22:28;;;;;;;17.97;14.07;;;13.40;99.90;;;13.95;55.71;102987.38;4940636;28;96971;-46
2021/12/19 03:24:54;;;;;;;19.30;14.00;;;13.40;99.90;;;14.06;55.16;102981.06;4958446;28;103882;-47
2021/12/19 03:27:20;;;;;;;17.47;14.10;;;13.60;99.90;;;13.96;55.56;102985.63;4935185;28;97493;-51
2021/12/19 03:29:46;;;;;;;17.37;13.33;;;13.40;99.90;;;14.08;55.40;102981.94;4935013;28;102178;-50
2021/12/19 03:32:12;;;;;;;16.47;13.67;;;13.50;99.90;;;14.15;55.24;102983.59;4939913;28;97749;-51
2021/12/19 03:34:38;;;;;;;18.87;13.87;;;13.60;99.90;;;14.23;54.84;102971.09;4934063;28;98882;-48
2021/12/19 03:37:04;;;;;;;17.80;13.43;;;13.70;99.90;;;14.25;54.63;102969.28;4958405;28;96878;-47
2021/12/19 03:39:55;;;;;;;17.27;13.57;;;13.70;99.90;;;14.19;54.80;102970.28;4956103;28;97884;-51
2021/12/19 03:42:26;;;;;;;18.30;13.23;;;13.60;99.90;;;14.25;54.77;102963.97;4935287;28;101846;-47
2021/12/19 03:44:53;;;;;;;16.27;12.87;;;13.60;99.90;;;14.19;53.65;102956.13;4928236;28;99053;-45
2021/12/19 03:47:20;;;;;;;17.30;12.97;;;13.70;99.90;;;14.17;54.32;102952.59;4944301;28;98436;-44
2021/12/19 03:49:46;;;;;;;17.60;13.57;;;13.60;99.90;;;14.25;54.72;102951.59;4949686;28;101848;-49
2021/12/19 03:52:13;;;;;;;18.77;14.30;;;13.70;99.90;;;14.23;53.69;102947.19;4943195;28;97615;-46
2021/12/19 03:54:39;;;;;;;18.57;14.20;;;13.70;99.90;;;14.23;54.92;102949.84;4934376;28;99341;-48
2021/12/19 03:57:05;;;;;;;17.03;14.07;;;13.70;99.90;;;14.31;55.07;102947.94;4940019;28;97292;-51
2021/12/19 03:59:31;;;;;;;17.07;13.33;;;13.80;99.90;;;14.28;54.89;102953.31;4935494;28;97006;-52
2021/12/19 04:01:57;;;;;;;16.30;12.70;;;13.70;99.90;;;14.13;54.14;102948.22;4937109;28;100515;-49
2021/12/19 04:04:23;;;;;;;18.47;14.07;;;13.60;99.90;;;14.12;54.18;102949.13;4942807;28;99180;-45
2021/12/19 04:06:49;;;;;;;18.57;13.57;;;13.50;99.90;;;14.16;55.42;102945.53;4931705;28;97145;-45
2021/12/19 04:09:15;;;;;;;17.67;13.17;;;13.50;99.90;;;14.26;54.62;102942.72;4940111;28;96982;-49
2021/12/19 04:11:41;;;;;;;17.63;14.10;;;13.70;99.90;;;14.33;54.42;102935.56;4950990;28;97459;-47
2021/12/19 04:14:07;;;;;;;19.33;14.77;;;13.80;99.90;;;14.34;54.58;102937.31;4941048;28;99618;-45
2021/12/19 04:16:33;;;;;;;21.87;13.83;;;13.80;99.90;;;14.35;54.38;102928.44;4938173;28;97234;-48
2021/12/19 04:18:58;;;;;;;20.30;12.67;;;13.80;99.90;;;14.29;54.37;102918.78;4938715;28;98377;-49
2021/12/19 04:21:24;;;;;;;16.33;13.10;;;13.70;99.90;;;14.34;54.67;102916.06;4937499;28;120238;-48
2021/12/19 04:23:50;;;;;;;16.77;13.27;;;13.80;99.90;;;14.26;53.00;102917.94;4932320;28;99486;-45
2021/12/19 04:26:16;;;;;;;15.60;12.77;;;13.80;99.90;;;14.27;53.97;102909.06;4944323;28;103684;-45
2021/12/19 04:28:42;;;;;;;19.53;14.53;;;13.70;99.90;;;14.23;54.45;102907.38;4933383;28;96998;-45
2021/12/19 04:31:09;;;;;;;17.07;12.77;;;13.70;99.90;;;14.27;54.71;102903.78;4941539;28;98137;-47
2021/12/19 04:33:38;;;;;;;15.37;12.40;;;13.70;99.90;;;14.25;54.05;102902.91;4932463;28;98400;-50
2021/12/19 04:36:06;;;;;;;16.13;12.77;;;13.80;99.90;;;14.19;54.24;102892.41;4939253;28;97563;-52
2021/12/19 04:55:45;;;;;;;14.33;11.17;;;13.50;99.90;;;13.76;55.45;102885.06;4953226;28;98385;-48
2021/12/19 05:00:15;;;;;;;14.40;11.07;;;13.20;99.90;;;13.67;55.89;102890.50;4955333;28;97439;-47
2021/12/19 05:02:59;;;;;;;14.27;11.57;;;13.10;99.90;;;13.58;55.47;102882.63;4947795;28;99945;-46
2021/12/19 05:16:08;;;;;;;14.30;11.20;;;13.10;99.90;;;13.65;56.32;102879.91;4944158;28;101136;-48
2021/12/19 05:18:37;;;;;;;13.50;10.47;;;13.10;99.90;;;13.55;56.21;102883.56;4914478;28;96956;-46
2021/12/19 05:21:12;;;;;;;13.97;10.77;;;13.00;99.90;;;13.57;56.10;102883.53;4937140;28;96900;-49
2021/12/19 05:24:02;;;;;;;13.87;11.20;;;13.10;99.90;;;13.47;55.21;102879.28;4928623;28;97698;-47
2021/12/19 05:26:24;;;;;;;13.97;11.30;;;13.00;99.90;;;13.62;56.47;102874.66;4954411;28;97852;-51
2021/12/19 05:28:52;;;;;;;13.57;11.37;;;13.10;99.90;;;13.64;55.95;102871.97;4947998;28;97024;-48
2021/12/19 05:31:19;;;;;;;14.67;11.40;;;13.10;99.90;;;13.60;56.21;102873.78;4938173;28;97164;-48
2021/12/19 05:33:47;;;;;;;14.93;11.27;;;13.00;99.90;;;13.61;56.58;102875.53;4932002;28;98244;-44
2021/12/19 05:46:53;;;;;;;12.47;10.40;;;13.20;99.90;;;13.73;56.36;102868.28;4956464;28;97186;-47
2021/12/19 05:49:19;;;;;;;12.80;10.97;;;13.20;99.90;;;13.73;55.80;102869.16;4923430;28;96864;-46
2021/12/19 05:51:46;;;;;;;13.40;10.63;;;13.20;99.90;;;13.71;55.28;102868.31;4933764;28;97576;-45
2021/12/19 05:54:12;;;;;;;14.60;11.33;;;13.20;99.90;;;13.75;55.25;102862.09;4938349;28;97359;-45
2021/12/19 05:56:39;;;;;;;14.97;11.17;;;13.20;99.90;;;13.83;55.80;102859.31;4932643;28;97200;-45
2021/12/19 05:59:06;;;;;;;13.57;11.03;;;13.30;99.90;;;13.83;55.63;102852.25;4957390;28;97278;-49
2021/12/19 06:01:32;;;;;;;14.13;11.47;;;13.30;99.90;;;13.77;55.45;102855.00;4930611;28;97397;-53
2021/12/19 06:03:59;;;;;;;13.47;10.53;;;13.20;99.90;;;13.73;55.67;102858.56;4923282;28;100875;-45
2021/12/19 06:06:27;;;;;;;13.80;10.70;;;13.10;99.90;;;13.69;55.62;102847.13;4933033;28;96842;-48
2021/12/19 06:08:54;;;;;;;14.23;10.90;;;13.10;99.90;;;13.69;55.78;102854.22;4933687;28;96764;-50
2021/12/19 06:11:20;;;;;;;13.07;10.40;;;13.10;99.90;;;13.64;55.57;102859.59;4937625;28;103337;-45
2021/12/19 06:13:46;;;;;;;15.00;10.53;;;13.10;99.90;;;13.68;56.43;102849.81;4942783;28;100753;-48
2021/12/19 06:16:12;;;;;;;14.17;10.70;;;13.10;99.90;;;13.76;55.75;102847.94;4937934;28;97368;-45
2021/12/19 06:18:38;;;;;;;14.73;11.37;;;13.20;99.90;;;13.74;55.82;102843.53;4931155;28;96886;-46
2021/12/19 06:21:05;;;;;;;13.57;10.30;;;13.20;99.90;;;13.62;54.82;102839.28;4939369;28;96681;-46
2021/12/19 06:23:32;;;;;;;11.70;10.10;;;13.10;99.90;;;13.64;56.05;102834.84;4948389;28;98582;-52
2021/12/19 06:25:58;;;;;;;14.17;10.97;;;13.00;99.90;;;13.68;55.93;102836.53;4950626;28;101792;-47
2021/12/19 06:28:24;;;;;;;12.97;10.17;;;13.10;99.90;;;13.65;55.99;102840.13;4950436;28;97223;-49
2021/12/19 06:30:50;;;;;;;11.97;9.37;;;13.10;99.90;;;13.73;56.32;102841.78;4932521;28;96951;-46
2021/12/19 06:33:16;;;;;;;11.53;10.03;;;13.10;99.90;;;13.76;56.22;102839.97;4955107;28;97715;-47
2021/12/19 06:35:42;;;;;;;12.70;10.70;;;13.20;99.90;;;13.68;55.08;102839.19;4949529;28;98401;-49
2021/12/19 06:38:08;;;;;;;13.57;11.77;;;13.10;99.90;;;13.80;55.68;102839.03;4935472;28;97023;-49
2021/12/19 06:40:36;;;;;;;16.23;11.33;;;13.30;99.90;;;13.85;55.04;102837.16;4936670;28;97445;-47
2021/12/19 06:43:02;;;;;;;15.10;12.20;;;13.40;99.90;;;13.91;55.68;102846.84;4941183;28;100252;-50
2021/12/19 06:45:28;;;;;;;15.27;11.87;;;13.40;99.90;;;13.82;54.17;102847.84;4936428;28;99163;-47
2021/12/19 06:47:54;;;;;;;15.23;12.90;;;13.40;99.90;;;13.88;54.61;102841.53;4935486;28;96759;-50
2021/12/19 06:50:20;;;;;;;15.80;12.93;;;13.40;99.90;;;13.74;55.47;102844.41;4937049;28;97453;-46
2021/12/19 06:52:48;;;;;;;18.97;13.87;;;13.20;99.90;;;13.58;54.24;102834.91;4957228;28;97655;-47
2021/12/19 06:55:16;;;;;;;16.33;12.60;;;13.00;99.90;;;13.54;56.21;102830.56;4942112;28;98136;-46
2021/12/19 06:57:42;;;;;;;14.47;11.20;;;12.90;99.90;;;13.44;55.78;102828.91;4937659;28;98956;-45
2021/12/19 07:00:16;;;;;;;14.67;10.73;;;12.80;99.90;;;13.59;56.55;102820.75;4939865;28;97468;-48
2021/12/19 07:02:43;;;;;;;13.63;11.20;;;13.00;99.90;;;13.48;55.13;102830.66;4949819;28;97042;-46
2021/12/19 07:05:09;;;;;;;15.50;11.67;;;12.90;99.90;;;13.32;55.50;102828.19;4962823;28;97065;-48
2021/12/19 07:07:35;;;;;;;14.30;11.17;;;12.80;99.90;;;13.37;56.76;102829.00;4933927;28;96813;-50
2021/12/19 07:10:02;;;;;;;14.87;11.53;;;12.80;99.90;;;13.35;55.97;102820.19;4963898;28;96986;-46
2021/12/19 07:12:27;;;;;;;17.20;12.50;;;12.80;99.90;;;13.36;56.23;102816.66;4955656;28;97142;-46
2021/12/19 07:14:55;;;;;;;15.67;13.17;;;12.80;99.90;;;13.35;56.18;102820.19;4940404;28;99090;-50
2021/12/19 07:17:21;;;;;;;16.37;12.03;;;12.80;99.90;;;13.36;56.61;102816.66;4959858;28;99682;-44
2021/12/19 07:19:47;;;;;;;16.40;12.47;;;12.80;99.90;;;13.43;55.57;102816.56;4935642;28;97439;-48
2021/12/19 07:22:12;;;;;;;15.80;11.07;;;12.90;99.90;;;13.44;55.29;102818.31;4925618;28;108715;-47
2021/12/19 07:24:38;;;;;;;15.07;11.27;;;12.90;99.90;;;13.61;56.32;102816.31;4932878;28;96991;-46
2021/12/19 07:27:04;;;;;;;15.90;11.87;;;13.00;99.90;;;13.64;55.86;102818.94;4944068;28;96861;-47
2021/12/19 07:29:31;;;;;;;14.13;10.60;;;13.10;99.90;;;13.68;56.33;102823.28;4936731;28;96848;-45
2021/12/19 07:31:58;;;;;;;17.40;11.87;;;13.10;99.90;;;13.65;56.37;102818.03;4935925;28;103662;-49
2021/12/19 07:34:31;;;;;;;16.80;12.13;;;13.10;99.90;;;13.68;55.61;102808.25;4943201;28;98068;-47
2021/12/19 07:36:57;;;;;;;18.20;12.67;;;13.10;99.90;;;13.43;56.07;102803.31;4939047;28;99918;-46
2021/12/19 07:39:39;;;;;;;15.67;11.33;;;12.90;99.90;;;13.47;56.15;102810.34;4929818;28;97607;-46
2021/12/19 07:42:11;;;;;;;18.83;13.00;;;13.00;99.90;;;13.47;56.80;102802.38;4953289;28;102268;-45
2021/12/19 07:44:38;;;;;;;18.77;13.70;;;12.90;99.90;;;13.49;56.57;102805.88;4954182;28;98761;-46
2021/12/19 07:47:08;;;;;;;21.80;13.63;;;13.00;99.90;;;13.43;55.42;102805.94;4937415;28;97651;-47
2021/12/19 07:49:35;;;;;;;20.90;13.87;;;12.90;99.90;;;13.21;56.16;102802.72;4936791;28;97046;-45
2021/12/19 07:52:03;;;;;;;19.17;12.70;;;12.70;99.90;;;13.35;56.87;102804.28;4956447;28;98870;-45
2021/12/19 07:54:29;;;;;;;21.17;14.27;;;12.80;99.90;;;13.30;53.81;102805.22;4928571;28;97789;-46
2021/12/19 07:56:55;;;;;;;19.60;12.83;;;12.90;99.90;;;13.42;55.49;102809.50;4934349;28;97003;-46
2021/12/19 07:59:20;;;;;;;18.13;12.50;;;12.90;99.90;;;13.35;55.68;102804.28;4941469;28;97948;-47
2021/12/19 08:01:48;;;;;;;19.93;13.20;;;12.80;99.90;;;13.42;55.94;102799.78;4949691;28;96901;-47
2021/12/19 08:04:15;;;;;;;18.80;12.47;;;12.80;99.90;;;13.30;54.82;102798.16;4941869;28;96851;-47
2021/12/19 08:06:41;;;;;;;18.37;12.47;;;12.80;99.90;;;13.35;55.85;102801.66;4937395;28;99519;-45
2021/12/19 08:09:20;;;;;;;18.43;11.87;;;12.90;99.90;;;13.02;56.03;102799.41;4939147;28;96864;-45
2021/12/19 08:11:46;;;;;;;16.53;11.87;;;12.60;99.90;;;13.00;56.90;102806.47;4952126;28;96661;-46
2021/12/19 08:14:14;;;;;;;17.00;12.90;;;12.50;99.90;;;12.76;56.49;102795.25;4938007;28;112183;-45
2021/12/19 08:16:43;;;;;;;16.10;11.20;;;12.30;99.90;;;12.69;56.56;102798.84;4940938;28;96904;-48
2021/12/19 08:19:10;;;;;;;18.50;11.97;;;12.30;99.90;;;12.50;55.81;102800.81;4953426;28;96868;-46
2021/12/19 08:21:36;;;;;;;17.80;11.47;;;12.20;99.90;;;12.53;57.96;102797.25;4954378;28;96895;-45
2021/12/19 08:24:09;;;;;;;16.67;10.77;;;12.00;99.90;;;12.58;56.98;102805.16;4940267;28;99412;-45
2021/12/19 08:26:35;;;;;;;12.97;8.57;;;12.10;99.90;;;12.51;56.40;102801.69;4934566;28;97481;-45
2021/12/19 08:29:02;;;;;;;12.37;7.97;;;12.00;99.90;;;12.54;56.25;102801.66;4955101;28;96922;-45
2021/12/19 08:31:28;;;;;;;10.00;7.17;;;12.10;99.90;;;12.64;56.92;102798.03;4958929;28;97476;-44
2021/12/19 08:33:54;;;;;;;8.60;6.20;;;12.20;99.90;;;12.70;56.44;102797.97;4937636;28;98042;-48
2021/12/19 08:36:20;;;;;;;9.77;6.53;;;12.30;99.90;;;12.84;57.76;102799.59;4933954;28;97071;-47
2021/12/19 08:38:47;;;;;;;7.60;5.60;;;12.40;99.90;;;12.80;56.43;102799.63;4937740;28;97348;-45
2021/12/19 08:41:14;;;;;;;7.10;4.93;;;12.30;99.90;;;12.72;56.25;102796.16;4938788;28;97957;-45
2021/12/19 08:43:40;;;;;;;9.10;5.60;;;12.20;99.90;;;12.73;54.85;102791.75;4955674;28;97391;-45
2021/12/19 08:46:08;;;;;;;6.33;4.80;;;12.20;99.90;;;12.93;57.76;102799.50;4953929;28;97183;-49
2021/12/19 08:48:35;;;;;;;7.13;4.77;;;12.30;99.90;;;13.00;56.48;102798.50;4939908;28;96861;-50
2021/12/19 08:51:02;;;;;;;6.30;4.23;;;12.40;99.90;;;13.05;56.80;102788.75;4935781;28;97764;-47
2021/12/19 08:53:27;;;;;;;5.97;4.20;;;12.50;99.90;;;13.24;56.38;102789.44;4951190;28;97340;-46
2021/12/19 08:55:53;;;;;;;6.63;4.90;;;12.60;99.90;;;13.35;55.73;102787.50;4950445;28;101918;-49
2021/12/19 08:58:19;;;;;;;4.97;4.23;;;12.70;99.90;;;13.27;55.47;102789.38;4922450;28;97159;-52
2021/12/19 09:00:45;;;;;;;8.03;4.90;;;12.60;99.90;;;13.14;56.54;102788.63;4936370;28;97653;-48
2021/12/19 09:03:11;;;;;;;5.60;4.03;;;12.50;99.90;;;13.17;56.21;102787.72;4936599;28;97697;-47
2021/12/19 09:05:37;;;;;;;6.23;4.17;;;12.50;99.90;;;13.02;56.28;102783.50;4934267;28;97767;-46
2021/12/19 09:08:03;;;;;;;6.70;4.23;;;12.40;99.90;;;13.14;56.89;102772.72;4921829;28;97240;-47
2021/12/19 09:10:30;;;;;;;6.63;4.47;;;12.40;99.90;;;13.33;56.43;102774.28;4934314;28;97611;-49
2021/12/19 09:12:56;;;;;;;7.30;4.43;;;12.70;99.90;;;13.47;55.33;102778.53;4953572;28;97497;-46
2021/12/19 09:15:22;;;;;;;6.37;4.47;;;12.90;99.90;;;13.44;55.58;102781.19;4932311;28;98834;-46
2021/12/19 09:17:48;;;;;;;6.47;5.00;;;12.80;99.90;;;13.58;54.94;102780.09;4905188;28;97452;-46
2021/12/19 09:20:15;;;;;;;6.73;4.87;;;13.00;99.90;;;13.52;55.58;102780.19;4917585;28;102664;-48
2021/12/19 09:22:41;;;;;;;5.83;3.97;;;12.90;99.90;;;13.46;55.85;102775.00;4892129;28;97635;-49
2021/12/19 09:25:08;;;;;;;7.53;5.60;;;12.90;99.90;;;13.39;55.10;102784.78;4915258;28;98112;-44
2021/12/19 09:27:34;;;;;;;7.57;5.23;;;12.80;99.90;;;13.48;55.93;102777.63;4924513;28;98299;-51
2021/12/19 09:30:00;;;;;;;7.73;5.37;;;12.90;99.90;;;13.48;55.00;102778.50;4916497;28;119133;-49
2021/12/19 09:32:27;;;;;;;6.50;5.57;;;12.90;99.90;;;13.51;54.39;102788.19;4935426;28;97564;-45
2021/12/19 09:34:54;;;;;;;10.47;7.70;;;13.00;99.90;;;13.26;55.19;102783.19;4911581;28;98913;-47
2021/12/19 09:37:20;;;;;;;14.83;12.20;;;12.80;99.90;;;13.27;55.46;102779.66;4911311;28;99026;-47
2021/12/19 09:39:49;;;;;;;13.50;10.20;;;12.80;99.90;;;13.18;55.85;102777.13;4911846;28;97812;-45
2021/12/19 09:42:19;;;;;;;9.90;7.50;;;12.70;99.90;;;13.10;56.84;102779.84;4933759;28;98379;-47
2021/12/19 09:44:46;;;;;;;13.67;10.80;;;12.50;99.90;;;13.04;56.17;102774.63;4930384;28;96841;-50
2021/12/19 09:47:12;;;;;;;9.40;6.77;;;12.50;99.90;;;12.91;55.21;102778.31;4916474;28;97274;-47
2021/12/19 09:49:38;;;;;;;14.77;10.23;;;12.40;99.90;;;12.92;55.79;102774.78;4924548;28;99592;-48
2021/12/19 09:52:08;;;;;;;19.47;13.90;;;12.40;99.90;;;12.85;55.06;102770.44;4916407;28;98388;-48
2021/12/19 09:54:36;;;;;;;15.87;12.17;;;12.50;99.90;;;12.94;56.63;102769.44;4914641;28;97112;-53
2021/12/19 09:57:04;;;;;;;15.17;11.67;;;12.50;99.90;;;12.87;57.37;102762.47;4933838;28;98392;-49
2021/12/19 09:59:30;;;;;;;16.13;9.07;;;12.40;99.90;;;12.93;56.28;102754.47;4917063;28;99963;-46
2021/12/19 10:01:56;;;;;;;13.63;9.67;;;12.50;99.90;;;13.05;56.89;102765.78;4906910;28;97453;-49
2021/12/19 10:04:41;;;;;;;10.00;7.80;;;12.60;99.90;;;12.87;55.74;102762.47;4909688;28;97208;-48
2021/12/19 10:07:20;;;;;;;10.50;7.70;;;12.50;99.90;;;12.57;55.49;102748.66;4915965;28;99085;-49
2021/12/19 10:09:55;;;;;;;8.97;5.87;;;12.20;99.90;;;12.39;57.23;102748.88;4909094;28;98549;-49
2021/12/19 10:15:34;;;;;;;7.83;5.80;;;11.90;99.90;;;12.41;58.27;102732.06;4929770;28;98327;-47
2021/12/19 10:18:21;;;;;;;6.10;5.00;;;12.10;99.90;;;12.35;57.19;102728.63;4914372;28;97226;-47
2021/12/19 10:20:59;;;;;;;6.03;5.30;;;12.00;99.90;;;12.40;58.06;102726.81;4910356;28;99236;-47
2021/12/19 10:23:36;;;;;;;6.33;4.63;;;12.00;99.90;;;12.38;58.32;102726.81;4928178;28;97915;-50
2021/12/19 10:26:11;;;;;;;7.30;5.30;;;12.00;99.90;;;12.70;57.97;102723.81;4889627;28;97467;-47
2021/12/19 10:28:57;;;;;;;6.07;4.40;;;12.30;99.90;;;12.43;57.92;102726.75;4909952;28;97566;-49
2021/12/19 10:31:29;;;;;;;7.83;5.67;;;12.10;99.90;;;12.39;57.82;102714.47;4913873;28;97963;-47
2021/12/19 10:33:56;;;;;;;7.10;5.23;;;12.00;99.90;;;12.67;58.19;102705.31;4912751;28;97565;-47
2021/12/19 10:36:22;;;;;;;8.87;7.20;;;12.40;99.90;;;12.79;56.72;102709.59;4910725;28;97981;-44
2021/12/19 10:38:51;;;;;;;7.17;5.87;;;12.50;99.90;;;12.75;57.69;102705.25;4912108;28;107601;-45
2021/12/19 10:41:33;;;;;;;8.03;5.90;;;12.40;99.90;;;12.71;57.38;102709.66;4908622;28;98398;-46
2021/12/19 10:44:05;;;;;;;6.93;5.53;;;12.30;99.90;;;12.61;57.18;102702.75;4927261;28;103473;-46
2021/12/19 10:46:37;;;;;;;9.53;7.53;;;12.20;99.90;;;12.70;57.58;102702.63;4904796;28;97006;-45
2021/12/19 10:49:06;;;;;;;6.43;4.53;;;12.30;99.90;;;12.73;57.72;102693.75;4930440;28;98458;-46
2021/12/19 10:51:38;;;;;;;6.37;4.80;;;12.30;99.90;;;12.67;58.32;102689.44;4933896;28;98623;-49
2021/12/19 10:54:07;;;;;;;8.03;5.07;;;12.20;99.90;;;12.70;58.39;102689.38;4910815;28;104517;-45
2021/12/19 10:56:36;;;;;;;6.27;4.37;;;12.20;99.90;;;12.79;57.26;102686.63;4935295;28;97512;-46
2021/12/19 10:59:09;;;;;;;4.53;4.00;;;12.30;99.90;;;12.72;57.81;102677.00;4930577;28;100525;-46
2021/12/19 11:01:44;;;;;;;4.50;4.10;;;12.20;99.90;;;12.61;57.23;102671.00;4907227;28;97732;-53
2021/12/19 11:04:22;;;;;;;3.97;3.47;;;12.10;99.90;;;12.62;58.69;102672.75;4926011;28;99336;-46
2021/12/19 11:06:54;;;;;;;4.33;3.93;;;12.10;99.90;;;12.62;57.83;102671.88;4896842;28;98948;-47
2021/12/19 11:09:28;;;;;;;6.23;5.03;;;12.20;99.90;;;12.73;58.40;102662.88;4916017;28;97343;-46
2021/12/19 11:12:05;;;;;;;5.50;4.63;;;12.20;99.90;;;12.60;57.86;102658.66;4901065;28;101001;-51
2021/12/19 11:14:43;;;;;;;4.33;3.50;;;12.20;99.90;;;12.57;57.48;102652.50;4908487;28;97371;-45